createdAt,value
2022-12-22T00:07:42.661Z,69.57
2022-12-22T00:12:19.800Z,66.03
2022-12-22T00:16:58.650Z,79.53
2022-12-22T00:21:37.783Z,83.40
2022-12-22T00:45:47.534Z,87.47
2022-12-22T00:55:52.848Z,81.93
2022-12-22T01:05:04.382Z,72.57
2022-12-22T01:10:01.761Z,70.67
2022-12-22T01:14:47.356Z,78.57
2022-12-22T01:19:14.280Z,69.83
2022-12-22T01:23:42.445Z,70.97
2022-12-22T01:33:19.477Z,66.37
2022-12-22T01:38:03.134Z,61.70
2022-12-22T01:42:36.340Z,77.37
2022-12-22T01:47:09.418Z,67.73
2022-12-22T01:51:39.817Z,68.43
2022-12-22T01:56:14.678Z,72.83
2022-12-22T02:00:42.896Z,61.90
2022-12-22T02:05:12.435Z,71.67
2022-12-22T02:10:03.519Z,69.53
2022-12-22T02:14:44.840Z,68.90
2022-12-22T02:19:19.331Z,57.77
2022-12-22T02:24:07.853Z,71.53
2022-12-22T02:28:45.173Z,72.13
2022-12-22T02:33:16.496Z,73.13
2022-12-22T02:37:53.945Z,64.07
2022-12-22T02:42:32.495Z,73.97
2022-12-22T02:52:07.836Z,72.10
2022-12-22T02:56:39.836Z,70.43
2022-12-22T03:01:10.617Z,74.90
2022-12-22T03:05:50.214Z,72.73
2022-12-22T03:10:18.533Z,70.97
2022-12-22T03:14:52.177Z,69.17
2022-12-22T03:19:22.035Z,70.77
2022-12-22T03:23:51.529Z,63.13
2022-12-22T03:28:06.714Z,67.47
2022-12-22T03:32:18.417Z,65.53
2022-12-22T03:36:29.123Z,65.73
2022-12-22T03:40:44.609Z,60.27
2022-12-22T03:45:11.655Z,66.80
2022-12-22T03:49:28.654Z,62.53
2022-12-22T03:53:41.241Z,70.47
2022-12-22T03:58:00.714Z,68.03
2022-12-22T04:02:15.157Z,61.20
2022-12-22T04:06:30.071Z,73.73
2022-12-22T04:11:00.338Z,77.53
2022-12-22T04:15:16.176Z,70.53
2022-12-22T04:19:26.593Z,65.47
2022-12-22T04:23:36.055Z,63.47
2022-12-22T04:27:49.155Z,60.03
2022-12-22T04:32:09.770Z,61.87
2022-12-22T04:36:19.607Z,61.93
2022-12-22T04:40:31.336Z,61.80
2022-12-22T04:44:40.830Z,58.07
2022-12-22T04:48:57.846Z,55.63
2022-12-22T04:53:12.473Z,62.17
2022-12-22T04:57:23.231Z,54.10
2022-12-22T05:01:35.151Z,65.80
2022-12-22T05:05:50.975Z,54.80
2022-12-22T05:10:10.233Z,53.40
2022-12-22T05:14:29.760Z,54.10
2022-12-22T05:18:40.042Z,71.13
2022-12-22T05:22:51.524Z,60.97
2022-12-22T05:27:02.453Z,75.57
2022-12-22T05:31:16.590Z,63.30
2022-12-22T05:35:26.132Z,59.20
2022-12-22T05:39:37.668Z,57.67
2022-12-22T05:43:49.656Z,59.87
2022-12-22T05:47:59.354Z,57.00
2022-12-22T05:52:09.008Z,69.30
2022-12-22T05:56:19.730Z,62.53
2022-12-22T06:00:29.470Z,60.87
2022-12-22T06:04:40.689Z,58.90
2022-12-22T06:08:50.777Z,58.53
2022-12-22T06:13:01.736Z,60.50
2022-12-22T06:17:15.470Z,60.63
2022-12-22T06:21:26.564Z,60.87
2022-12-22T06:25:37.071Z,55.40
2022-12-22T06:29:49.077Z,61.20
2022-12-22T06:33:58.617Z,54.10
2022-12-22T06:38:08.091Z,56.13
2022-12-22T06:42:39.491Z,61.97
2022-12-22T06:46:53.013Z,56.97
2022-12-22T06:51:04.190Z,59.80
2022-12-22T06:55:15.415Z,56.87
2022-12-22T06:59:24.851Z,66.40
2022-12-22T07:03:35.726Z,59.70
2022-12-22T07:07:45.210Z,67.30
2022-12-22T07:11:55.872Z,55.87
2022-12-22T07:16:10.464Z,64.17
2022-12-22T07:20:24.820Z,56.07
2022-12-22T07:24:35.993Z,59.30
2022-12-22T07:28:51.350Z,55.40
2022-12-22T07:33:03.153Z,59.90
2022-12-22T07:37:15.252Z,61.23
2022-12-22T07:41:42.870Z,72.00
2022-12-22T07:45:52.608Z,59.13
2022-12-22T07:50:19.116Z,61.63
2022-12-22T07:54:31.710Z,61.73
2022-12-22T07:58:47.849Z,62.67
2022-12-22T08:02:59.183Z,60.63
2022-12-22T08:07:18.971Z,61.73
2022-12-22T08:11:29.937Z,63.77
2022-12-22T08:15:43.908Z,53.53
2022-12-22T08:19:53.517Z,60.30
2022-12-22T08:24:03.031Z,59.63
2022-12-22T08:28:15.869Z,63.93
2022-12-22T08:32:25.578Z,69.50
2022-12-22T08:36:42.768Z,58.57
2022-12-22T08:40:57.903Z,59.77
2022-12-22T08:45:47.657Z,49.33
2022-12-22T08:50:06.628Z,63.83
2022-12-22T08:54:22.891Z,63.47
2022-12-22T08:58:47.569Z,64.13
2022-12-22T09:03:25.298Z,63.23
2022-12-22T09:13:07.312Z,64.97
2022-12-22T09:22:26.736Z,69.63
2022-12-22T09:26:38.832Z,68.97
2022-12-22T10:35:12.933Z,63.73
2022-12-22T11:09:33.116Z,52.53
2022-12-22T11:31:04.282Z,52.13
2022-12-22T12:10:36.809Z,50.13
2022-12-22T12:32:19.326Z,37.70
2022-12-22T12:37:15.365Z,37.90
2022-12-22T12:47:52.507Z,47.73
2022-12-22T16:07:31.911Z,39.90
2022-12-22T16:28:01.512Z,43.00
2022-12-22T18:06:48.737Z,37.17
2022-12-22T18:11:10.756Z,36.07
2022-12-22T18:24:54.192Z,41.23
2022-12-22T18:49:27.010Z,29.73
2022-12-22T18:53:39.047Z,23.50
2022-12-22T18:57:58.774Z,24.40
2022-12-22T19:02:28.064Z,13.33
2022-12-22T19:06:38.768Z,16.03
2022-12-22T19:10:52.408Z,9.83
2022-12-22T19:15:11.149Z,11.00
2022-12-22T19:19:22.091Z,8.07
2022-12-22T19:23:31.919Z,7.83
2022-12-22T19:27:54.409Z,12.30
2022-12-22T19:32:28.262Z,11.03
2022-12-22T19:36:44.072Z,15.73
2022-12-22T19:45:48.904Z,18.83
2022-12-22T19:49:58.949Z,24.10
2022-12-22T19:54:09.078Z,37.57
2022-12-22T19:58:22.448Z,33.50
2022-12-22T20:02:36.495Z,40.60
2022-12-22T20:20:57.770Z,34.83
2022-12-22T20:25:32.050Z,38.07
2022-12-22T20:29:47.730Z,30.93
2022-12-22T20:38:47.609Z,20.73
2022-12-22T20:43:34.176Z,18.33
2022-12-22T23:00:06.554Z,38.60
2022-12-22T23:05:22.490Z,33.67
2022-12-22T23:10:00.525Z,33.83
2022-12-22T23:31:19.917Z,42.03
